createdAt,value
2023-02-27T00:02:26.851Z,5.07
2023-02-27T00:04:57.529Z,5.80
2023-02-27T00:07:28.884Z,5.53
2023-02-27T00:09:57.177Z,5.70
2023-02-27T00:12:26.694Z,5.43
2023-02-27T00:14:54.971Z,5.87
2023-02-27T00:17:25.975Z,6.67
2023-02-27T00:19:54.362Z,5.73
2023-02-27T00:22:22.627Z,6.33
2023-02-27T00:24:52.448Z,5.60
2023-02-27T00:27:20.816Z,6.03
2023-02-27T00:29:49.191Z,5.80
2023-02-27T00:32:17.794Z,5.70
2023-02-27T00:34:47.804Z,5.10
2023-02-27T00:37:16.108Z,5.43
2023-02-27T00:39:44.370Z,5.47
2023-02-27T00:42:14.077Z,5.57
2023-02-27T00:44:42.315Z,5.63
2023-02-27T00:47:10.598Z,5.63
2023-02-27T00:49:41.224Z,5.63
2023-02-27T00:52:10.391Z,5.30
2023-02-27T00:54:38.711Z,5.53
2023-02-27T00:57:07.008Z,5.47
2023-02-27T00:59:36.710Z,5.50
2023-02-27T01:02:05.139Z,5.40
2023-02-27T01:04:34.738Z,5.03
2023-02-27T01:07:03.054Z,5.27
2023-02-27T01:09:31.571Z,5.10
2023-02-27T01:11:59.865Z,5.40
2023-02-27T01:14:30.635Z,5.20
2023-02-27T01:17:00.278Z,5.17
2023-02-27T01:19:28.769Z,5.20
2023-02-27T01:21:57.000Z,5.57
2023-02-27T01:24:25.355Z,5.33
2023-02-27T01:26:53.793Z,5.20
2023-02-27T01:29:22.113Z,5.63
2023-02-27T01:31:50.447Z,5.37
2023-02-27T01:34:20.170Z,5.13
2023-02-27T01:36:48.494Z,4.93
2023-02-27T01:39:17.769Z,5.23
2023-02-27T01:41:46.079Z,4.70
2023-02-27T01:44:15.619Z,4.90
2023-02-27T01:46:44.215Z,4.60
2023-02-27T01:49:17.541Z,4.83
2023-02-27T01:51:50.708Z,4.40
2023-02-27T01:54:21.574Z,4.50
2023-02-27T01:56:51.154Z,4.40
2023-02-27T01:59:20.634Z,4.67
2023-02-27T02:01:52.887Z,4.33
2023-02-27T02:04:27.291Z,4.67
2023-02-27T02:07:00.984Z,4.40
2023-02-27T02:09:30.752Z,4.20
2023-02-27T02:12:00.403Z,4.77
2023-02-27T02:14:28.683Z,4.73
2023-02-27T02:17:11.151Z,4.23
2023-02-27T02:20:31.460Z,4.33
2023-02-27T02:23:52.929Z,4.43
2023-02-27T02:26:37.927Z,4.80
2023-02-27T02:29:36.921Z,4.90
2023-02-27T02:32:35.613Z,4.20
2023-02-27T02:35:32.815Z,4.33
2023-02-27T02:38:28.541Z,4.83
2023-02-27T02:41:03.780Z,4.80
2023-02-27T02:43:42.087Z,4.77
2023-02-27T02:46:16.652Z,4.37
2023-02-27T02:48:50.613Z,5.00
2023-02-27T02:51:25.001Z,5.17
2023-02-27T02:54:01.846Z,4.73
2023-02-27T02:56:37.592Z,5.37
2023-02-27T02:59:12.861Z,5.37
2023-02-27T03:01:46.653Z,5.97
2023-02-27T03:04:19.637Z,5.17
2023-02-27T03:06:52.530Z,5.90
2023-02-27T03:09:27.264Z,5.97
2023-02-27T03:12:00.938Z,6.53
2023-02-27T03:14:33.634Z,6.73
2023-02-27T03:17:08.098Z,6.27
2023-02-27T03:19:42.321Z,6.23
2023-02-27T03:22:14.697Z,6.33
2023-02-27T03:24:46.266Z,6.63
2023-02-27T03:27:18.787Z,6.43
2023-02-27T03:29:55.026Z,6.90
2023-02-27T03:32:30.282Z,7.07
2023-02-27T03:34:59.018Z,6.87
2023-02-27T03:37:37.556Z,8.10
2023-02-27T03:40:14.721Z,7.10
2023-02-27T03:42:49.023Z,7.43
2023-02-27T03:45:33.649Z,7.43
2023-02-27T03:48:03.360Z,7.43
2023-02-27T03:50:31.914Z,6.63
2023-02-27T03:53:00.980Z,7.10
2023-02-27T03:55:33.668Z,7.80
2023-02-27T03:58:03.938Z,6.80
2023-02-27T04:00:33.094Z,6.03
2023-02-27T04:03:02.567Z,6.10
2023-02-27T04:05:32.540Z,6.30
2023-02-27T04:08:33.555Z,6.43
2023-02-27T04:11:18.133Z,5.63
2023-02-27T04:14:01.509Z,5.57
2023-02-27T04:17:04.915Z,6.00
2023-02-27T04:19:45.834Z,5.90
2023-02-27T04:22:26.624Z,5.40
2023-02-27T04:25:03.673Z,5.33
2023-02-27T04:27:38.406Z,5.47
2023-02-27T04:30:17.890Z,5.20
2023-02-27T04:32:53.411Z,5.07
2023-02-27T04:35:27.149Z,4.70
2023-02-27T04:38:01.202Z,4.53
2023-02-27T04:40:33.844Z,4.40
2023-02-27T04:43:05.550Z,4.93
2023-02-27T04:45:38.684Z,4.83
2023-02-27T04:48:11.608Z,5.50
2023-02-27T04:50:46.088Z,5.50
2023-02-27T04:53:20.450Z,4.87
2023-02-27T04:55:51.964Z,5.07
2023-02-27T04:58:25.253Z,4.97
2023-02-27T05:01:00.659Z,5.40
2023-02-27T05:03:34.669Z,4.40
2023-02-27T05:06:04.449Z,4.93
2023-02-27T05:08:39.937Z,4.97
2023-02-27T05:11:12.424Z,5.10
2023-02-27T05:13:44.820Z,5.17
2023-02-27T05:16:21.066Z,4.73
2023-02-27T05:18:50.219Z,4.87
2023-02-27T05:21:27.958Z,5.30
2023-02-27T05:24:07.752Z,5.00
2023-02-27T05:26:47.807Z,5.07
2023-02-27T05:29:21.637Z,4.93
2023-02-27T05:31:56.465Z,4.87
2023-02-27T05:34:30.088Z,4.23
2023-02-27T05:37:03.092Z,5.03
2023-02-27T05:39:34.692Z,4.50
2023-02-27T05:42:06.427Z,4.03
2023-02-27T05:44:37.499Z,4.40
2023-02-27T05:47:11.642Z,4.80
2023-02-27T05:49:44.277Z,4.93
2023-02-27T05:52:14.992Z,5.00
2023-02-27T05:54:50.452Z,5.40
2023-02-27T05:57:22.672Z,4.73
2023-02-27T05:59:59.339Z,5.30
2023-02-27T06:02:29.259Z,4.80
2023-02-27T06:04:57.990Z,4.83
2023-02-27T06:07:26.297Z,5.23
2023-02-27T06:09:54.856Z,5.30
2023-02-27T06:12:23.170Z,5.13
2023-02-27T06:14:51.863Z,5.13
2023-02-27T06:17:20.280Z,4.73
2023-02-27T06:19:50.176Z,5.00
2023-02-27T06:22:18.494Z,5.63
2023-02-27T06:24:46.704Z,5.40
2023-02-27T06:27:15.043Z,5.47
2023-02-27T06:29:43.268Z,6.20
2023-02-27T06:32:11.660Z,5.17
2023-02-27T06:34:39.956Z,4.93
2023-02-27T06:37:09.734Z,5.57
2023-02-27T06:39:38.084Z,5.33
2023-02-27T06:42:06.507Z,5.00
2023-02-27T06:44:35.022Z,4.80
2023-02-27T06:47:03.256Z,4.93
2023-02-27T06:49:31.607Z,5.30
2023-02-27T06:51:59.874Z,5.10
2023-02-27T06:54:29.641Z,4.93
2023-02-27T06:56:57.858Z,4.90
2023-02-27T06:59:26.271Z,5.37
2023-02-27T07:01:54.690Z,5.23
2023-02-27T07:04:22.956Z,4.57
2023-02-27T07:07:32.734Z,5.00
2023-02-27T07:09:41.018Z,4.70
2023-02-27T07:12:09.754Z,4.87
2023-02-27T07:14:38.235Z,4.43
2023-02-27T07:17:06.531Z,5.00
2023-02-27T07:19:36.044Z,4.80
2023-02-27T07:22:05.234Z,4.43
2023-02-27T07:24:33.595Z,4.97
2023-02-27T07:27:03.261Z,5.27
2023-02-27T07:29:31.611Z,5.47
2023-02-27T07:32:01.595Z,4.90
2023-02-27T07:34:29.921Z,4.93
2023-02-27T07:36:58.206Z,4.67
2023-02-27T07:39:26.499Z,7.33
2023-02-27T07:41:54.818Z,7.60
2023-02-27T07:44:25.365Z,6.13
2023-02-27T07:46:53.770Z,5.60
2023-02-27T07:49:22.071Z,6.00
2023-02-27T07:51:50.409Z,6.63
2023-02-27T07:54:18.848Z,8.77
2023-02-27T07:56:47.160Z,8.57
2023-02-27T07:59:15.678Z,12.33
2023-02-27T08:01:45.440Z,9.30
2023-02-27T08:04:13.780Z,8.07
2023-02-27T08:06:42.617Z,7.60
2023-02-27T08:09:11.574Z,5.73
2023-02-27T08:11:39.862Z,4.97
2023-02-27T08:14:08.288Z,5.57
2023-02-27T08:16:36.706Z,4.97
2023-02-27T08:19:06.623Z,4.67
2023-02-27T08:21:34.918Z,5.10
2023-02-27T08:24:03.167Z,4.07
2023-02-27T08:26:31.754Z,4.63
2023-02-27T08:29:00.014Z,3.90
2023-02-27T08:31:28.510Z,3.27
2023-02-27T08:34:07.782Z,3.37
2023-02-27T08:36:39.572Z,3.13
2023-02-27T08:39:09.067Z,3.27
2023-02-27T08:41:37.773Z,3.57
2023-02-27T08:44:06.515Z,3.47
2023-02-27T08:46:34.803Z,2.87
2023-02-27T08:49:03.136Z,3.57
2023-02-27T08:51:32.020Z,3.40
2023-02-27T08:54:01.771Z,3.70
2023-02-27T08:56:30.744Z,3.57
2023-02-27T08:58:59.028Z,3.43
2023-02-27T09:01:31.965Z,3.10
2023-02-27T09:04:00.665Z,2.80
2023-02-27T09:06:29.536Z,3.40
2023-02-27T09:08:58.412Z,3.30
2023-02-27T09:11:29.238Z,3.00
2023-02-27T09:13:58.951Z,2.63
2023-02-27T09:16:27.853Z,3.03
2023-02-27T09:18:56.739Z,3.28
2023-02-27T09:21:25.866Z,3.03
2023-02-27T09:23:54.989Z,2.58
2023-02-27T09:26:38.960Z,2.30
2023-02-27T09:29:09.541Z,3.00
2023-02-27T09:31:37.889Z,2.60
2023-02-27T09:34:06.192Z,2.33
2023-02-27T09:36:35.072Z,2.60
2023-02-27T09:39:03.387Z,2.03
2023-02-27T09:41:42.846Z,2.20
2023-02-27T09:44:33.462Z,1.88
2023-02-27T09:47:15.288Z,2.15
2023-02-27T09:49:54.716Z,2.28
2023-02-27T09:52:23.118Z,1.85
2023-02-27T09:54:51.541Z,1.70
2023-02-27T09:57:25.837Z,1.80
2023-02-27T10:00:01.334Z,1.83
2023-02-27T10:02:43.931Z,2.03
2023-02-27T10:05:25.018Z,1.60
2023-02-27T10:08:02.147Z,1.20
2023-02-27T10:10:35.810Z,1.48
2023-02-27T10:13:26.790Z,1.50
2023-02-27T10:15:56.630Z,1.30
2023-02-27T10:18:30.924Z,1.65
2023-02-27T10:21:01.735Z,1.40
2023-02-27T10:23:37.323Z,1.35
2023-02-27T10:26:07.015Z,1.30
2023-02-27T10:28:35.693Z,1.27
2023-02-27T10:31:18.192Z,1.20
2023-02-27T10:33:49.133Z,1.17
2023-02-27T10:36:33.063Z,1.27
2023-02-27T10:39:06.092Z,1.10
2023-02-27T10:41:35.945Z,0.90
2023-02-27T10:44:05.041Z,0.90
2023-02-27T10:46:38.395Z,1.00
2023-02-27T10:49:18.717Z,1.10
2023-02-27T10:51:48.239Z,0.80
2023-02-27T10:54:23.655Z,1.00
2023-02-27T10:56:55.129Z,1.10
2023-02-27T10:59:27.183Z,0.75
2023-02-27T11:02:00.122Z,0.73
2023-02-27T11:04:33.104Z,1.15
2023-02-27T11:07:04.293Z,1.08
2023-02-27T11:09:34.063Z,0.90
2023-02-27T11:12:14.421Z,1.00
2023-02-27T11:14:53.748Z,1.05
2023-02-27T11:17:29.482Z,1.30
2023-02-27T11:19:58.299Z,0.82
2023-02-27T11:22:28.547Z,1.13
2023-02-27T11:25:22.415Z,1.00
2023-02-27T11:27:52.296Z,1.30
2023-02-27T11:30:28.196Z,0.75
2023-02-27T11:33:00.276Z,1.00
2023-02-27T11:35:31.258Z,0.98
2023-02-27T11:38:02.588Z,1.10
2023-02-27T11:40:34.112Z,1.30
2023-02-27T11:43:06.146Z,0.88
2023-02-27T11:46:13.701Z,1.15
2023-02-27T11:48:30.383Z,0.82
2023-02-27T11:51:33.146Z,0.70
2023-02-27T11:54:15.961Z,1.20
2023-02-27T11:56:47.329Z,1.10
2023-02-27T11:59:25.901Z,0.90
2023-02-27T12:02:01.208Z,0.85
2023-02-27T12:04:42.643Z,1.10
2023-02-27T12:07:18.003Z,0.98
2023-02-27T12:09:53.192Z,1.05
2023-02-27T12:12:25.924Z,1.00
2023-02-27T12:15:08.449Z,1.00
2023-02-27T12:17:42.056Z,0.90
2023-02-27T12:20:29.719Z,1.17
2023-02-27T12:22:58.324Z,1.30
2023-02-27T12:25:38.297Z,1.00
2023-02-27T12:28:18.389Z,1.30
2023-02-27T12:30:54.515Z,1.23
2023-02-27T12:33:29.697Z,0.80
2023-02-27T12:36:03.728Z,1.00
2023-02-27T12:38:33.193Z,0.88
2023-02-27T12:41:19.214Z,0.82
2023-02-27T12:43:52.668Z,1.20
2023-02-27T12:46:31.935Z,0.70
2023-02-27T12:49:20.090Z,0.88
2023-02-27T12:51:59.080Z,0.85
2023-02-27T12:54:37.027Z,1.00
2023-02-27T12:57:33.661Z,1.05
2023-02-27T13:00:11.775Z,0.63
2023-02-27T13:03:05.211Z,0.82
2023-02-27T13:05:39.210Z,0.82
2023-02-27T13:08:43.178Z,0.60
2023-02-27T13:11:22.872Z,0.70
2023-02-27T13:13:56.261Z,0.77
2023-02-27T13:16:30.526Z,0.80
2023-02-27T13:19:05.477Z,0.95
2023-02-27T13:21:39.951Z,0.85
2023-02-27T13:24:26.283Z,0.95
2023-02-27T13:26:59.966Z,1.10
2023-02-27T13:29:36.569Z,1.10
2023-02-27T13:32:17.547Z,0.93
2023-02-27T13:34:49.286Z,0.80
2023-02-27T13:37:17.709Z,0.60
2023-02-27T13:39:57.194Z,0.93
2023-02-27T13:42:56.695Z,1.17
2023-02-27T13:45:48.446Z,0.70
2023-02-27T13:48:40.124Z,0.90
2023-02-27T13:51:13.114Z,0.95
2023-02-27T13:53:41.526Z,1.05
2023-02-27T13:56:25.139Z,0.85
2023-02-27T13:58:53.547Z,1.00
2023-02-27T14:01:28.613Z,0.60
2023-02-27T14:04:00.148Z,1.15
2023-02-27T14:06:29.206Z,1.00
2023-02-27T14:09:14.084Z,1.15
2023-02-27T14:11:54.962Z,1.40
2023-02-27T14:14:50.279Z,1.50
2023-02-27T14:17:44.856Z,1.20
2023-02-27T14:20:15.937Z,1.25
2023-02-27T14:23:18.855Z,1.00
2023-02-27T14:25:49.210Z,1.33
2023-02-27T14:28:26.794Z,1.30
2023-02-27T14:30:59.625Z,1.33
2023-02-27T14:33:42.534Z,1.10
2023-02-27T14:36:20.536Z,1.23
2023-02-27T14:38:50.734Z,1.38
2023-02-27T14:41:31.959Z,1.25
2023-02-27T14:44:02.114Z,1.30
2023-02-27T14:46:32.295Z,0.90
2023-02-27T14:49:03.037Z,0.90
2023-02-27T14:51:33.049Z,0.90
2023-02-27T14:54:04.933Z,1.30
2023-02-27T14:56:33.842Z,1.50
2023-02-27T14:59:04.970Z,0.80
2023-02-27T15:01:37.700Z,1.35
2023-02-27T15:04:08.604Z,1.00
2023-02-27T15:06:44.651Z,0.90
2023-02-27T15:09:23.688Z,1.00
2023-02-27T15:12:03.435Z,0.98
2023-02-27T15:14:37.694Z,0.85
2023-02-27T15:17:16.119Z,1.33
2023-02-27T15:19:49.011Z,1.25
2023-02-27T15:22:36.125Z,1.40
2023-02-27T15:25:08.212Z,1.15
2023-02-27T15:27:38.597Z,1.23
2023-02-27T15:30:22.041Z,1.30
2023-02-27T15:32:50.893Z,1.20
2023-02-27T15:35:23.520Z,1.45
2023-02-27T15:37:54.771Z,1.10
2023-02-27T15:40:26.671Z,1.70
2023-02-27T15:42:56.522Z,1.80
2023-02-27T15:45:29.048Z,1.48
2023-02-27T15:47:58.144Z,1.27
2023-02-27T15:50:28.952Z,1.42
2023-02-27T15:53:04.111Z,1.38
2023-02-27T15:55:35.589Z,1.65
2023-02-27T15:58:04.363Z,1.58
2023-02-27T16:00:36.187Z,1.83
2023-02-27T16:03:07.399Z,1.58
2023-02-27T16:05:38.636Z,1.92
2023-02-27T16:08:07.840Z,1.20
2023-02-27T16:10:38.832Z,1.15
2023-02-27T16:13:30.537Z,1.20
2023-02-27T16:16:05.827Z,1.70
2023-02-27T16:18:37.590Z,1.50
2023-02-27T16:21:14.396Z,1.20
2023-02-27T16:23:42.964Z,1.50
2023-02-27T16:26:29.389Z,1.48
2023-02-27T16:29:00.479Z,1.35
2023-02-27T16:31:32.741Z,1.60
2023-02-27T16:34:03.300Z,1.42
2023-02-27T16:36:33.814Z,1.23
2023-02-27T16:39:02.204Z,1.30
2023-02-27T16:41:30.659Z,1.80
2023-02-27T16:43:59.087Z,1.20
2023-02-27T16:46:27.684Z,1.70
2023-02-27T16:49:04.545Z,1.48
2023-02-27T16:51:38.905Z,1.90
2023-02-27T16:54:07.244Z,1.48
2023-02-27T16:56:38.552Z,1.95
2023-02-27T16:59:07.483Z,1.98
2023-02-27T17:01:36.140Z,1.73
2023-02-27T17:04:16.402Z,1.60
2023-02-27T17:06:48.042Z,1.55
2023-02-27T17:09:16.568Z,1.98
2023-02-27T17:11:45.000Z,2.25
2023-02-27T17:14:13.346Z,1.92
2023-02-27T17:16:41.667Z,2.17
2023-02-27T17:19:11.534Z,2.30
2023-02-27T17:21:39.971Z,2.75
2023-02-27T17:24:08.774Z,3.00
2023-02-27T17:26:37.743Z,2.20
2023-02-27T17:29:06.466Z,2.25
2023-02-27T17:31:34.967Z,2.33
2023-02-27T17:34:05.145Z,2.40
2023-02-27T17:36:34.856Z,2.17
2023-02-27T17:39:03.258Z,2.70
2023-02-27T17:41:33.039Z,2.08
2023-02-27T17:44:01.890Z,2.58
2023-02-27T17:46:31.719Z,2.13
2023-02-27T17:49:01.284Z,2.45
2023-02-27T17:51:31.164Z,2.10
2023-02-27T17:54:02.685Z,2.20
2023-02-27T17:56:31.213Z,2.00
2023-02-27T17:58:59.724Z,2.10
2023-02-27T18:01:29.050Z,2.30
2023-02-27T18:03:57.743Z,2.17
2023-02-27T18:06:26.346Z,2.28
2023-02-27T18:08:55.123Z,2.30
2023-02-27T18:11:24.918Z,1.75
2023-02-27T18:13:54.322Z,2.33
2023-02-27T18:16:23.165Z,2.20
2023-02-27T18:18:51.826Z,2.03
2023-02-27T18:21:21.921Z,1.95
2023-02-27T18:23:51.470Z,2.33
2023-02-27T18:26:32.602Z,2.60
2023-02-27T18:29:05.123Z,2.80
2023-02-27T18:31:35.070Z,2.43
2023-02-27T18:34:04.051Z,2.87
2023-02-27T18:36:32.932Z,2.77
2023-02-27T18:39:01.657Z,3.80
2023-02-27T18:41:30.591Z,3.47
2023-02-27T18:43:59.635Z,3.43
2023-02-27T18:46:30.113Z,3.47
2023-02-27T18:48:58.990Z,3.67
2023-02-27T18:51:29.157Z,3.47
2023-02-27T18:53:58.445Z,3.07
2023-02-27T18:56:28.201Z,3.30
2023-02-27T18:59:01.964Z,3.27
2023-02-27T19:01:33.513Z,3.40
2023-02-27T19:04:04.936Z,3.40
2023-02-27T19:06:33.783Z,3.13
2023-02-27T19:09:02.052Z,3.37
2023-02-27T19:11:33.552Z,2.90
2023-02-27T19:14:02.866Z,3.33
2023-02-27T19:16:32.954Z,3.40
2023-02-27T19:19:03.213Z,3.40
2023-02-27T19:21:31.945Z,3.27
2023-02-27T19:24:00.286Z,3.60
2023-02-27T19:26:29.489Z,3.80
2023-02-27T19:28:58.355Z,3.80
2023-02-27T19:31:28.688Z,3.80
2023-02-27T19:33:58.906Z,3.50
2023-02-27T19:36:29.144Z,3.10
2023-02-27T19:38:58.280Z,3.87
2023-02-27T19:41:26.688Z,3.07
2023-02-27T19:43:55.461Z,3.00
2023-02-27T19:46:27.112Z,3.23
2023-02-27T19:48:58.059Z,3.37
2023-02-27T19:51:27.923Z,3.10
2023-02-27T19:53:56.396Z,3.20
2023-02-27T19:56:28.048Z,3.20
2023-02-27T19:58:57.820Z,3.27
2023-02-27T20:01:28.048Z,3.30
2023-02-27T20:03:57.410Z,3.20
2023-02-27T20:06:29.641Z,4.03
2023-02-27T20:08:59.890Z,3.57
2023-02-27T20:11:30.576Z,3.70
2023-02-27T20:13:58.966Z,3.30
2023-02-27T20:16:28.469Z,3.30
2023-02-27T20:18:56.928Z,3.40
2023-02-27T20:21:30.176Z,3.03
2023-02-27T20:23:59.229Z,3.20
2023-02-27T20:26:30.833Z,3.47
2023-02-27T20:29:01.566Z,3.50
2023-02-27T20:31:32.497Z,2.97
2023-02-27T20:34:01.785Z,3.00
2023-02-27T20:36:31.464Z,3.50
2023-02-27T20:38:59.799Z,3.63
2023-02-27T20:41:29.763Z,3.23
2023-02-27T20:43:58.692Z,3.80
2023-02-27T20:46:29.049Z,3.60
2023-02-27T20:49:00.233Z,3.87
2023-02-27T20:51:32.149Z,4.30
2023-02-27T20:54:01.405Z,3.83
2023-02-27T20:56:31.720Z,4.97
2023-02-27T20:59:00.608Z,4.63
2023-02-27T21:01:29.557Z,4.20
2023-02-27T21:03:59.147Z,3.63
2023-02-27T21:06:28.186Z,4.27
2023-02-27T21:08:58.298Z,4.37
2023-02-27T21:11:29.635Z,4.60
2023-02-27T21:13:59.367Z,5.73
2023-02-27T21:16:27.718Z,5.90
2023-02-27T21:18:56.761Z,5.10
2023-02-27T21:21:30.778Z,5.50
2023-02-27T21:24:00.995Z,6.07
2023-02-27T21:26:31.903Z,5.20
2023-02-27T21:29:02.751Z,5.03
2023-02-27T21:31:33.477Z,5.70
2023-02-27T21:34:03.107Z,5.40
2023-02-27T21:36:33.297Z,6.07
2023-02-27T21:39:05.828Z,6.97
2023-02-27T21:41:35.471Z,7.53
2023-02-27T21:44:05.552Z,8.20
2023-02-27T21:46:35.222Z,7.73
2023-02-27T21:49:04.132Z,8.10
2023-02-27T21:51:40.390Z,8.73
2023-02-27T21:54:12.579Z,8.83
2023-02-27T21:56:42.078Z,8.73
2023-02-27T21:59:11.160Z,8.30
2023-02-27T22:01:40.043Z,8.20
2023-02-27T22:04:08.726Z,7.70
2023-02-27T22:06:37.133Z,8.27
2023-02-27T22:09:07.134Z,7.10
2023-02-27T22:11:37.399Z,8.17
2023-02-27T22:14:07.284Z,9.17
2023-02-27T22:16:36.198Z,7.87
2023-02-27T22:19:07.669Z,7.93
2023-02-27T22:21:37.475Z,8.17
2023-02-27T22:24:06.579Z,8.23
2023-02-27T22:26:36.549Z,8.10
2023-02-27T22:29:06.011Z,7.87
2023-02-27T22:31:35.942Z,7.73
2023-02-27T22:34:06.389Z,8.10
2023-02-27T22:36:35.858Z,7.50
2023-02-27T22:39:04.707Z,8.23
2023-02-27T22:41:38.083Z,8.00
2023-02-27T22:44:07.366Z,8.30
2023-02-27T22:46:37.614Z,7.03
2023-02-27T22:49:08.191Z,7.30
2023-02-27T22:51:36.657Z,8.70
2023-02-27T22:54:06.971Z,8.03
2023-02-27T22:56:37.613Z,8.50
2023-02-27T22:59:06.094Z,8.00
2023-02-27T23:01:36.342Z,8.00
2023-02-27T23:04:07.897Z,8.50
2023-02-27T23:06:38.910Z,8.00
2023-02-27T23:09:08.682Z,8.13
2023-02-27T23:11:38.624Z,8.23
2023-02-27T23:14:06.966Z,7.63
2023-02-27T23:16:35.408Z,7.80
2023-02-27T23:19:04.124Z,7.60
2023-02-27T23:21:34.576Z,6.70
2023-02-27T23:24:05.230Z,6.50
2023-02-27T23:26:35.639Z,6.47
2023-02-27T23:29:05.496Z,6.30
2023-02-27T23:31:35.444Z,6.73
2023-02-27T23:34:05.381Z,6.72
2023-02-27T23:36:33.998Z,6.45
2023-02-27T23:39:03.051Z,6.17
2023-02-27T23:41:31.582Z,6.70
2023-02-27T23:44:17.566Z,6.50
2023-02-27T23:46:47.375Z,6.10
2023-02-27T23:49:15.685Z,6.50
2023-02-27T23:51:43.989Z,6.10
2023-02-27T23:54:12.297Z,5.78
2023-02-27T23:56:40.701Z,6.33
2023-02-27T23:59:09.235Z,5.43
